createdAt,value
2022-11-25T00:00:50.652Z,25.80
2022-11-25T00:06:09.056Z,32.20
2022-11-25T00:11:13.847Z,32.00
2022-11-25T00:16:19.515Z,34.80
2022-11-25T00:21:25.741Z,35.90
2022-11-25T00:26:31.981Z,31.50
2022-11-25T00:31:37.744Z,25.70
2022-11-25T00:36:42.044Z,27.60
2022-11-25T00:42:04.614Z,24.40
2022-11-25T00:47:11.883Z,37.80
2022-11-25T00:52:17.577Z,36.10
2022-11-25T00:57:23.728Z,37.80
2022-11-25T01:02:27.608Z,35.10
2022-11-25T01:07:31.689Z,28.70
2022-11-25T01:12:36.089Z,37.30
2022-11-25T01:17:39.735Z,38.90
2022-11-25T01:22:43.357Z,41.70
2022-11-25T01:27:47.310Z,39.80
2022-11-25T01:32:50.973Z,38.50
2022-11-25T01:37:54.530Z,40.90
2022-11-25T01:42:57.968Z,41.10
2022-11-25T01:48:07.405Z,37.60
2022-11-25T01:53:13.881Z,37.20
2022-11-25T01:58:21.685Z,33.90
2022-11-25T02:03:29.193Z,36.90
2022-11-25T02:08:34.077Z,41.40
2022-11-25T02:13:38.380Z,38.20
2022-11-25T02:18:43.796Z,37.70
2022-11-25T02:23:56.922Z,36.50
2022-11-25T02:29:00.397Z,33.90
2022-11-25T02:34:04.124Z,38.80
2022-11-25T02:39:08.450Z,37.40
2022-11-25T02:44:12.081Z,39.40
2022-11-25T02:49:15.859Z,37.40
2022-11-25T02:54:19.818Z,41.20
2022-11-25T02:59:23.429Z,37.20
2022-11-25T03:04:27.211Z,35.30
2022-11-25T03:09:30.695Z,26.10
2022-11-25T03:14:34.571Z,29.00
2022-11-25T03:19:38.483Z,38.30
2022-11-25T03:24:42.894Z,39.80
2022-11-25T03:29:46.314Z,39.50
2022-11-25T03:34:50.200Z,35.10
2022-11-25T03:39:53.814Z,36.30
2022-11-25T03:44:57.376Z,30.60
2022-11-25T03:50:00.967Z,42.00
2022-11-25T03:55:06.103Z,36.10
2022-11-25T04:00:12.617Z,34.90
2022-11-25T04:05:16.521Z,35.90
2022-11-25T04:10:20.675Z,28.60
2022-11-25T04:15:24.276Z,40.00
2022-11-25T04:20:27.881Z,38.90
2022-11-25T04:25:31.496Z,40.10
2022-11-25T04:30:35.036Z,34.10
2022-11-25T04:39:35.272Z,28.10
2022-11-25T04:44:42.178Z,41.10
2022-11-25T04:49:49.510Z,40.00
2022-11-25T04:54:56.569Z,41.70
2022-11-25T05:00:03.883Z,30.10
2022-11-25T05:05:11.703Z,38.10
2022-11-25T05:10:19.618Z,33.40
2022-11-25T05:15:26.824Z,36.80
2022-11-25T05:20:34.136Z,39.50
2022-11-25T05:25:42.565Z,39.90
2022-11-25T05:30:51.861Z,41.30
2022-11-25T05:36:01.150Z,40.80
2022-11-25T05:41:11.211Z,40.90
2022-11-25T05:46:18.895Z,39.40
2022-11-25T05:51:28.373Z,38.40
2022-11-25T05:56:35.385Z,40.00
2022-11-25T06:01:42.720Z,36.00
2022-11-25T06:06:49.630Z,36.00
2022-11-25T06:11:56.520Z,41.20
2022-11-25T06:17:04.530Z,39.40
2022-11-25T06:22:11.483Z,42.00
2022-11-25T06:27:18.559Z,43.90
2022-11-25T06:32:26.596Z,40.20
2022-11-25T06:37:34.507Z,38.80
2022-11-25T06:42:43.606Z,36.00
2022-11-25T06:47:50.861Z,43.10
2022-11-25T06:58:33.932Z,39.40
2022-11-25T07:03:31.132Z,40.70
2022-11-25T07:08:38.107Z,34.80
2022-11-25T07:13:45.715Z,45.60
2022-11-25T07:18:53.187Z,41.70
2022-11-25T07:24:02.178Z,41.60
2022-11-25T07:34:41.547Z,43.30
2022-11-25T07:39:48.564Z,43.60
2022-11-25T07:44:55.564Z,43.20
2022-11-25T07:50:02.747Z,41.90
2022-11-25T07:55:10.818Z,39.80
2022-11-25T08:00:19.841Z,41.00
2022-11-25T08:05:27.335Z,40.80
2022-11-25T08:10:34.315Z,44.80
2022-11-25T08:15:41.379Z,46.00
2022-11-25T08:20:48.670Z,42.70
2022-11-25T08:25:55.842Z,43.70
2022-11-25T08:36:13.339Z,45.10
2022-11-25T08:41:23.409Z,41.90
2022-11-25T08:46:33.843Z,42.50
2022-11-25T08:51:41.491Z,44.30
2022-11-25T08:56:55.895Z,40.30
2022-11-25T09:02:03.301Z,45.20
2022-11-25T09:07:10.404Z,42.60
2022-11-25T09:12:20.447Z,40.80
2022-11-25T09:17:28.968Z,37.40
2022-11-25T09:22:36.432Z,45.20
2022-11-25T09:27:43.954Z,45.60
2022-11-25T09:32:54.174Z,46.90
2022-11-25T09:38:01.267Z,50.10
2022-11-25T09:43:37.854Z,45.00
2022-11-25T09:48:59.650Z,45.10
2022-11-25T09:54:14.462Z,44.30
2022-11-25T09:59:27.383Z,47.40
2022-11-25T10:04:42.066Z,46.30
2022-11-25T10:09:49.690Z,48.40
2022-11-25T10:15:01.250Z,46.60
2022-11-25T10:20:14.437Z,39.00
2022-11-25T10:25:24.694Z,47.90
2022-11-25T10:30:41.148Z,52.60
2022-11-25T10:35:54.267Z,38.20
2022-11-25T10:41:04.124Z,48.20
2022-11-25T10:46:23.327Z,52.80
2022-11-25T10:51:42.299Z,44.90
2022-11-25T10:56:52.902Z,47.50
2022-11-25T11:02:22.573Z,47.20
2022-11-25T11:07:33.408Z,46.50
2022-11-25T11:12:51.334Z,45.90
2022-11-25T11:18:00.124Z,47.90
2022-11-25T11:23:11.193Z,50.00
2022-11-25T11:28:41.170Z,42.90
2022-11-25T11:34:11.909Z,44.90
2022-11-25T11:39:36.797Z,43.10
2022-11-25T11:44:58.967Z,44.40
2022-11-25T11:50:30.121Z,46.80
2022-11-25T11:56:26.712Z,44.20
2022-11-25T12:01:41.834Z,43.50
2022-11-25T12:06:59.661Z,47.40
2022-11-25T12:12:13.036Z,46.90
2022-11-25T12:17:24.799Z,47.60
2022-11-25T12:22:38.806Z,48.30
2022-11-25T12:27:51.935Z,43.70
2022-11-25T12:33:08.778Z,45.00
2022-11-25T12:38:24.681Z,47.30
2022-11-25T12:43:40.880Z,47.00
2022-11-25T12:48:48.040Z,45.60
2022-11-25T12:59:31.969Z,44.40
2022-11-25T13:05:25.551Z,43.40
2022-11-25T13:11:05.500Z,47.10
2022-11-25T13:16:14.198Z,46.90
2022-11-25T13:21:24.440Z,44.60
2022-11-25T13:26:54.636Z,46.90
2022-11-25T13:32:03.344Z,45.80
2022-11-25T13:37:41.062Z,45.90
2022-11-25T13:42:48.800Z,44.20
2022-11-25T13:48:05.197Z,42.30
2022-11-25T13:53:26.194Z,42.60
2022-11-25T13:58:36.184Z,39.10
2022-11-25T14:03:58.384Z,44.70
2022-11-25T14:09:16.591Z,45.10
2022-11-25T14:14:49.758Z,42.20
2022-11-25T14:20:15.997Z,41.70
2022-11-25T14:25:27.059Z,41.70
2022-11-25T14:30:35.546Z,47.50
2022-11-25T14:35:49.031Z,45.80
2022-11-25T14:41:00.221Z,45.40
2022-11-25T14:46:16.794Z,45.80
2022-11-25T14:51:28.537Z,47.00
2022-11-25T14:56:38.221Z,47.80
2022-11-25T15:01:56.357Z,47.30
2022-11-25T15:07:03.439Z,49.00
2022-11-25T15:12:18.116Z,48.70
2022-11-25T15:17:30.295Z,48.50
2022-11-25T15:22:37.815Z,50.20
2022-11-25T15:27:50.924Z,48.50
2022-11-25T15:33:01.154Z,48.10
2022-11-25T15:38:35.704Z,50.40
2022-11-25T15:43:46.990Z,44.50
2022-11-25T15:48:58.797Z,42.90
2022-11-25T15:54:14.387Z,47.50
2022-11-25T15:59:49.352Z,47.50
2022-11-25T16:05:15.781Z,49.60
2022-11-25T16:10:25.224Z,48.60
2022-11-25T16:15:47.689Z,54.70
2022-11-25T16:21:00.626Z,52.40
2022-11-25T16:26:18.708Z,53.80
2022-11-25T16:31:26.908Z,42.90
2022-11-25T16:36:34.106Z,50.30
2022-11-25T16:46:50.812Z,48.40
2022-11-25T16:52:00.883Z,52.60
2022-11-25T16:57:14.993Z,50.80
2022-11-25T17:02:24.651Z,52.50
2022-11-25T17:07:34.041Z,52.20
2022-11-25T17:12:44.138Z,51.20
2022-11-25T17:17:52.736Z,50.20
2022-11-25T17:23:00.362Z,51.70
2022-11-25T17:28:07.742Z,49.20
2022-11-25T17:33:18.430Z,47.60
2022-11-25T17:38:25.843Z,51.10
2022-11-25T17:43:34.720Z,50.40
2022-11-25T17:48:43.352Z,52.40
2022-11-25T17:53:51.518Z,47.40
2022-11-25T17:59:03.185Z,53.00
2022-11-25T18:04:18.862Z,51.40
2022-11-25T18:09:26.375Z,47.40
2022-11-25T18:19:40.045Z,48.20
2022-11-25T18:24:47.372Z,35.40
2022-11-25T18:29:55.111Z,50.10
2022-11-25T18:35:02.085Z,29.10
2022-11-25T19:00:33.084Z,51.10
2022-11-25T19:05:40.930Z,51.90
2022-11-25T19:15:52.808Z,53.60
2022-11-25T19:21:00.155Z,50.80
2022-11-25T19:26:14.737Z,50.50
2022-11-25T19:31:22.767Z,45.40
2022-11-25T19:36:31.953Z,49.10
2022-11-25T19:41:38.817Z,46.10
2022-11-25T19:47:13.648Z,47.90
2022-11-25T19:52:20.610Z,53.90
2022-11-25T20:00:54.459Z,51.10
2022-11-25T20:06:02.207Z,49.70
2022-11-25T20:11:10.358Z,50.20
2022-11-25T20:16:22.499Z,49.00
2022-11-25T20:21:34.798Z,52.60
2022-11-25T20:26:46.186Z,50.20
2022-11-25T20:31:53.704Z,50.40
2022-11-25T20:37:01.509Z,50.70
2022-11-25T20:42:10.762Z,49.10
2022-11-25T20:47:20.042Z,55.50
2022-11-25T20:52:32.240Z,48.70
2022-11-25T20:57:39.370Z,49.70
2022-11-25T21:07:52.981Z,51.60
2022-11-25T21:13:00.320Z,54.80
2022-11-25T21:23:21.011Z,54.50
2022-11-25T21:28:30.201Z,58.40
2022-11-25T21:33:37.196Z,55.90
2022-11-25T21:38:45.344Z,49.90
2022-11-25T21:43:52.828Z,53.00
2022-11-25T21:48:59.920Z,56.10
2022-11-25T21:59:21.213Z,55.80
2022-11-25T22:04:28.577Z,48.60
2022-11-25T22:09:35.659Z,54.70
2022-11-25T22:19:48.664Z,53.10
2022-11-25T22:24:55.608Z,55.80
2022-11-25T22:30:03.284Z,55.00
2022-11-25T22:35:17.026Z,49.00
2022-11-25T22:40:25.277Z,58.10
2022-11-25T22:45:35.602Z,53.90
2022-11-25T22:50:44.479Z,57.40
2022-11-25T22:55:53.905Z,55.60
2022-11-25T23:01:01.214Z,57.30
2022-11-25T23:06:11.814Z,42.30
2022-11-25T23:11:21.873Z,50.90
2022-11-25T23:16:29.283Z,47.50
2022-11-25T23:30:24.213Z,40.10
2022-11-25T23:35:35.038Z,48.00
2022-11-25T23:40:38.920Z,54.80
2022-11-25T23:45:49.304Z,54.50
2022-11-25T23:50:55.571Z,56.20
2022-11-25T23:55:59.525Z,54.40
